Time;durP1;ratioP1;P1;durP2;ratioP2;P2;SDS_P1;SDS_P2;PMS_P1;PMS_P2;Temp;Humidity;BMP_temperature;BMP_pressure;BME280_temperature;BME280_humidity;BME280_pressure;Samples;Min_cycle;Max_cycle;Signal;HPM_P1;HPM_P2
2023/05/20 00:00:24;;;;;;;5.28;4.78;;;;;;;;;;4977624;28;20029;-40
2023/05/20 00:02:50;;;;;;;7.00;4.95;;;;;;;;;;4980926;28;20443;-40
2023/05/20 00:05:15;;;;;;;5.22;4.72;;;;;;;;;;4985730;28;20109;-42
2023/05/20 00:07:40;;;;;;;4.95;4.55;;;;;;;;;;4981604;28;20062;-42
2023/05/20 00:10:06;;;;;;;5.03;4.50;;;;;;;;;;4981980;28;20038;-44
2023/05/20 00:12:32;;;;;;;10.25;4.90;;;;;;;;;;4980176;28;20487;-40
2023/05/20 00:14:57;;;;;;;4.97;4.50;;;;;;;;;;4980472;28;20531;-41
2023/05/20 00:17:24;;;;;;;5.47;4.97;;;;;;;;;;4984710;28;20133;-40
2023/05/20 00:19:49;;;;;;;7.70;5.13;;;;;;;;;;4980914;28;20030;-41
2023/05/20 00:22:15;;;;;;;6.15;4.90;;;;;;;;;;4980586;28;20411;-43
2023/05/20 00:24:40;;;;;;;5.25;4.75;;;;;;;;;;4982109;28;20030;-42
2023/05/20 00:27:06;;;;;;;5.75;5.20;;;;;;;;;;4982327;28;20077;-40
2023/05/20 00:29:32;;;;;;;5.85;4.35;;;;;;;;;;4980407;28;20974;-40
2023/05/20 00:31:58;;;;;;;8.38;5.00;;;;;;;;;;4982456;28;20050;-38
2023/05/20 00:34:23;;;;;;;5.13;4.68;;;;;;;;;;4981307;28;20036;-42
2023/05/20 00:36:48;;;;;;;6.47;4.93;;;;;;;;;;4982300;28;20047;-40
2023/05/20 00:39:14;;;;;;;5.07;4.32;;;;;;;;;;4982477;28;20380;-42
2023/05/20 00:41:39;;;;;;;5.57;5.07;;;;;;;;;;4982735;28;20039;-43
2023/05/20 00:44:05;;;;;;;8.50;4.97;;;;;;;;;;4984832;28;20034;-41
2023/05/20 00:46:30;;;;;;;5.55;4.93;;;;;;;;;;4983053;28;20117;-40
2023/05/20 00:48:56;;;;;;;5.32;4.65;;;;;;;;;;4985485;28;20030;-39
2023/05/20 00:51:22;;;;;;;6.40;4.85;;;;;;;;;;4983607;28;20439;-40
2023/05/20 00:53:48;;;;;;;5.97;5.38;;;;;;;;;;4983470;28;20026;-40
2023/05/20 00:56:13;;;;;;;7.60;4.78;;;;;;;;;;4984834;28;20550;-44
2023/05/20 00:58:39;;;;;;;8.15;5.25;;;;;;;;;;4985328;28;20081;-41
2023/05/20 01:01:05;;;;;;;6.35;5.00;;;;;;;;;;4987066;28;20042;-45
2023/05/20 01:03:31;;;;;;;4.97;4.57;;;;;;;;;;4988899;28;20026;-41
2023/05/20 01:05:56;;;;;;;6.43;4.72;;;;;;;;;;4987626;28;20050;-44
2023/05/20 01:08:23;;;;;;;5.13;4.72;;;;;;;;;;4989905;28;20049;-39
2023/05/20 01:10:56;;;;;;;5.85;5.18;;;;;;;;;;4980863;28;21189;-40
2023/05/20 01:13:26;;;;;;;5.93;5.43;;;;;;;;;;4984805;28;20038;-40
2023/05/20 01:15:54;;;;;;;5.40;5.00;;;;;;;;;;4983570;28;20077;-40
2023/05/20 01:18:24;;;;;;;5.85;5.35;;;;;;;;;;4987253;28;20052;-40
2023/05/20 01:20:52;;;;;;;6.07;5.57;;;;;;;;;;4981672;28;20048;-40
2023/05/20 01:23:18;;;;;;;6.15;5.55;;;;;;;;;;4982211;28;20031;-42
2023/05/20 01:25:43;;;;;;;6.28;5.65;;;;;;;;;;4984552;28;20046;-40
2023/05/20 01:28:09;;;;;;;6.13;5.63;;;;;;;;;;4985054;28;20046;-41
2023/05/20 01:30:40;;;;;;;6.97;6.38;;;;;;;;;;4982559;28;20030;-45
2023/05/20 01:33:10;;;;;;;6.93;6.20;;;;;;;;;;4983069;28;20030;-41
2023/05/20 01:35:36;;;;;;;7.03;5.63;;;;;;;;;;4983187;28;20035;-41
2023/05/20 01:38:03;;;;;;;9.32;5.70;;;;;;;;;;4982787;28;20061;-40
2023/05/20 01:40:29;;;;;;;9.35;6.10;;;;;;;;;;4983622;28;20514;-42
2023/05/20 01:42:55;;;;;;;8.00;5.55;;;;;;;;;;4981112;28;20098;-44
2023/05/20 01:45:23;;;;;;;7.30;6.18;;;;;;;;;;4985412;28;20131;-43
2023/05/20 01:47:48;;;;;;;8.00;5.93;;;;;;;;;;4985022;28;20030;-45
2023/05/20 01:50:14;;;;;;;6.68;6.00;;;;;;;;;;4983483;28;20038;-44
2023/05/20 01:52:39;;;;;;;7.40;6.28;;;;;;;;;;4980220;28;20561;-42
2023/05/20 01:55:05;;;;;;;6.55;6.00;;;;;;;;;;4984689;28;20136;-45
2023/05/20 01:57:30;;;;;;;7.22;6.63;;;;;;;;;;4985355;28;20042;-41
2023/05/20 01:59:56;;;;;;;7.03;6.40;;;;;;;;;;4984652;28;20542;-39
2023/05/20 02:02:21;;;;;;;6.93;6.43;;;;;;;;;;4984137;28;20038;-44
2023/05/20 02:04:47;;;;;;;9.20;6.70;;;;;;;;;;4987259;28;20021;-42
2023/05/20 02:07:20;;;;;;;8.45;6.53;;;;;;;;;;4987964;28;20049;-42
2023/05/20 02:09:45;;;;;;;;;;;;;;;;;;4985588;28;20030;-40
2023/05/20 02:12:15;;;;;;;7.05;6.45;;;;;;;;;;4981051;28;19984;-42
2023/05/20 02:14:44;;;;;;;6.68;6.15;;;;;;;;;;4980729;28;20109;-41
2023/05/20 02:17:10;;;;;;;9.60;6.40;;;;;;;;;;4985825;28;20038;-41
2023/05/20 02:19:35;;;;;;;6.90;5.60;;;;;;;;;;4983522;28;20023;-43
2023/05/20 02:22:00;;;;;;;7.80;5.63;;;;;;;;;;4982665;28;20034;-42
2023/05/20 02:24:26;;;;;;;6.78;5.47;;;;;;;;;;4987758;28;20027;-42
2023/05/20 02:26:53;;;;;;;7.85;6.50;;;;;;;;;;4978443;28;20508;-39
2023/05/20 02:29:20;;;;;;;7.30;6.20;;;;;;;;;;4986900;28;20502;-42
2023/05/20 02:31:46;;;;;;;7.30;6.32;;;;;;;;;;4977343;28;20034;-40
2023/05/20 02:34:11;;;;;;;10.73;6.13;;;;;;;;;;4984527;28;20137;-40
2023/05/20 02:36:37;;;;;;;6.70;6.10;;;;;;;;;;4982679;28;20081;-40
2023/05/20 02:39:02;;;;;;;7.03;6.32;;;;;;;;;;4983090;28;20041;-46
2023/05/20 02:41:28;;;;;;;6.85;6.25;;;;;;;;;;4981226;28;20435;-42
2023/05/20 02:43:54;;;;;;;7.10;6.22;;;;;;;;;;4984325;28;20352;-40
2023/05/20 02:46:19;;;;;;;7.60;6.13;;;;;;;;;;4981201;28;20058;-42
2023/05/20 02:48:45;;;;;;;7.00;6.25;;;;;;;;;;4979736;28;20109;-43
2023/05/20 02:51:10;;;;;;;9.85;6.32;;;;;;;;;;4982238;28;20089;-42
2023/05/20 02:53:36;;;;;;;6.47;5.97;;;;;;;;;;4980620;28;20062;-40
2023/05/20 02:56:03;;;;;;;6.57;6.00;;;;;;;;;;4984454;28;20113;-44
2023/05/20 02:58:28;;;;;;;7.30;6.55;;;;;;;;;;4981421;28;20102;-43
2023/05/20 03:00:56;;;;;;;7.90;6.88;;;;;;;;;;4981486;28;20551;-41
2023/05/20 03:03:22;;;;;;;9.35;6.22;;;;;;;;;;4981067;28;20037;-42
2023/05/20 03:05:49;;;;;;;6.85;6.13;;;;;;;;;;4983466;28;20129;-40
2023/05/20 03:08:14;;;;;;;8.10;7.20;;;;;;;;;;4984553;28;20054;-43
2023/05/20 03:10:39;;;;;;;7.50;6.80;;;;;;;;;;4982500;28;20046;-41
2023/05/20 03:13:07;;;;;;;7.88;7.00;;;;;;;;;;4977246;28;20054;-40
2023/05/20 03:15:34;;;;;;;7.50;6.70;;;;;;;;;;4982043;28;20046;-42
2023/05/20 03:17:59;;;;;;;7.97;7.15;;;;;;;;;;4978410;28;20065;-43
2023/05/20 03:20:25;;;;;;;10.20;6.85;;;;;;;;;;4982570;28;20488;-45
2023/05/20 03:22:51;;;;;;;7.65;6.85;;;;;;;;;;4981919;28;20634;-46
2023/05/20 03:25:16;;;;;;;7.88;7.18;;;;;;;;;;4983033;28;20025;-39
2023/05/20 03:27:43;;;;;;;8.45;7.10;;;;;;;;;;4982632;28;20061;-46
2023/05/20 03:30:09;;;;;;;7.97;7.28;;;;;;;;;;4983651;28;20675;-40
2023/05/20 03:32:34;;;;;;;8.52;7.30;;;;;;;;;;4982347;28;20050;-40
2023/05/20 03:35:00;;;;;;;9.98;6.90;;;;;;;;;;4979208;28;20531;-40
2023/05/20 03:37:25;;;;;;;9.15;7.18;;;;;;;;;;4979407;28;20051;-45
2023/05/20 03:39:50;;;;;;;9.55;7.10;;;;;;;;;;4980070;28;20035;-40
2023/05/20 03:42:16;;;;;;;7.75;6.95;;;;;;;;;;4981990;28;20042;-39
2023/05/20 03:44:41;;;;;;;9.27;7.15;;;;;;;;;;4981209;28;20061;-40
2023/05/20 03:47:06;;;;;;;9.68;6.72;;;;;;;;;;4981143;28;20403;-39
2023/05/20 03:49:32;;;;;;;8.30;7.10;;;;;;;;;;4981154;28;20030;-41
2023/05/20 03:51:57;;;;;;;6.45;5.95;;;;;;;;;;4983171;28;20419;-44
2023/05/20 03:54:23;;;;;;;6.82;6.13;;;;;;;;;;4983056;28;20077;-41
2023/05/20 03:56:48;;;;;;;7.57;6.80;;;;;;;;;;4981209;28;20042;-39
2023/05/20 03:59:14;;;;;;;7.10;6.45;;;;;;;;;;4981712;28;20035;-40
2023/05/20 04:01:39;;;;;;;6.78;6.22;;;;;;;;;;4983408;28;20045;-42
2023/05/20 04:04:05;;;;;;;7.70;6.22;;;;;;;;;;4986072;28;20032;-40
2023/05/20 04:06:31;;;;;;;6.95;5.80;;;;;;;;;;4979620;28;20034;-41
2023/05/20 04:08:57;;;;;;;6.10;5.53;;;;;;;;;;4983379;28;20387;-46
2023/05/20 04:11:22;;;;;;;7.15;6.35;;;;;;;;;;4983631;28;20038;-40
2023/05/20 04:13:48;;;;;;;7.28;6.40;;;;;;;;;;4983610;28;20110;-39
2023/05/20 04:16:13;;;;;;;7.78;6.18;;;;;;;;;;4982004;28;20063;-41
2023/05/20 04:18:39;;;;;;;6.60;6.00;;;;;;;;;;4985622;28;20038;-44
2023/05/20 04:21:05;;;;;;;7.25;6.53;;;;;;;;;;4986150;28;20039;-41
2023/05/20 04:23:30;;;;;;;7.20;6.30;;;;;;;;;;4983306;28;20077;-40
2023/05/20 04:26:01;;;;;;;7.22;6.57;;;;;;;;;;4981325;28;20553;-39
2023/05/20 04:28:27;;;;;;;7.75;7.05;;;;;;;;;;4986676;28;20035;-41
2023/05/20 04:31:03;;;;;;;9.55;7.38;;;;;;;;;;4984937;28;20117;-40
2023/05/20 04:33:32;;;;;;;8.27;7.57;;;;;;;;;;4978029;28;20030;-40
2023/05/20 04:35:58;;;;;;;8.82;7.65;;;;;;;;;;4984476;28;20381;-38
2023/05/20 04:38:29;;;;;;;9.88;8.88;;;;;;;;;;4986458;28;20455;-40
2023/05/20 04:40:58;;;;;;;8.33;7.53;;;;;;;;;;4984367;28;20565;-42
2023/05/20 04:43:25;;;;;;;8.57;7.78;;;;;;;;;;4987074;28;20036;-44
2023/05/20 04:45:52;;;;;;;8.77;7.88;;;;;;;;;;4981660;28;20085;-41
2023/05/20 04:48:18;;;;;;;9.07;8.05;;;;;;;;;;4984417;28;20031;-40
2023/05/20 04:50:44;;;;;;;8.98;8.18;;;;;;;;;;4985844;28;20073;-47
2023/05/20 04:53:10;;;;;;;8.95;7.55;;;;;;;;;;4985742;28;20105;-41
2023/05/20 04:55:36;;;;;;;8.48;7.43;;;;;;;;;;4982134;28;20523;-40
2023/05/20 04:58:01;;;;;;;8.15;7.32;;;;;;;;;;4984559;28;20030;-40
2023/05/20 05:00:27;;;;;;;8.77;7.82;;;;;;;;;;4986992;28;20105;-40
2023/05/20 05:02:52;;;;;;;8.00;7.10;;;;;;;;;;4983863;28;20862;-40
2023/05/20 05:05:18;;;;;;;10.02;7.53;;;;;;;;;;4987696;28;20034;-38
2023/05/20 05:07:43;;;;;;;8.63;7.82;;;;;;;;;;4985906;28;20038;-39
2023/05/20 05:10:09;;;;;;;8.40;7.10;;;;;;;;;;4984905;28;20391;-43
2023/05/20 05:12:34;;;;;;;8.32;7.47;;;;;;;;;;4976194;28;20038;-40
2023/05/20 05:14:59;;;;;;;10.50;7.28;;;;;;;;;;4982705;28;20026;-40
2023/05/20 05:17:25;;;;;;;9.90;7.18;;;;;;;;;;4986288;28;20081;-39
2023/05/20 05:19:50;;;;;;;7.57;6.50;;;;;;;;;;4986190;28;20073;-42
2023/05/20 05:22:15;;;;;;;8.32;5.93;;;;;;;;;;4981892;28;20046;-40
2023/05/20 05:24:41;;;;;;;5.95;5.45;;;;;;;;;;4983256;28;21551;-42
2023/05/20 05:27:06;;;;;;;6.35;5.75;;;;;;;;;;4986371;28;20118;-42
2023/05/20 05:29:32;;;;;;;5.40;4.90;;;;;;;;;;4985512;28;20034;-44
2023/05/20 05:31:57;;;;;;;5.68;5.18;;;;;;;;;;4984610;28;20039;-43
2023/05/20 05:34:22;;;;;;;6.22;5.72;;;;;;;;;;4984627;28;20042;-42
2023/05/20 05:36:48;;;;;;;6.13;5.50;;;;;;;;;;4984467;28;20574;-39
2023/05/20 05:39:13;;;;;;;5.43;4.93;;;;;;;;;;4984141;28;20030;-40
2023/05/20 05:41:38;;;;;;;8.88;6.00;;;;;;;;;;4984781;28;20054;-42
2023/05/20 05:44:04;;;;;;;5.72;5.22;;;;;;;;;;4985112;28;20023;-40
2023/05/20 05:46:30;;;;;;;6.05;5.10;;;;;;;;;;4985541;28;20400;-40
2023/05/20 05:48:57;;;;;;;8.35;5.30;;;;;;;;;;4982997;28;20034;-41
2023/05/20 05:51:24;;;;;;;5.20;4.80;;;;;;;;;;4985088;28;20038;-43
2023/05/20 05:53:49;;;;;;;8.70;5.30;;;;;;;;;;4983379;28;20072;-39
2023/05/20 05:56:15;;;;;;;6.22;4.47;;;;;;;;;;4983133;28;20055;-40
2023/05/20 05:58:40;;;;;;;4.90;4.50;;;;;;;;;;4986404;28;20538;-41
2023/05/20 06:01:05;;;;;;;6.97;4.47;;;;;;;;;;4985182;28;20076;-40
2023/05/20 06:03:31;;;;;;;4.50;4.10;;;;;;;;;;4985545;28;20113;-40
2023/05/20 06:05:57;;;;;;;6.10;5.70;;;;;;;;;;4982611;28;20050;-43
2023/05/20 06:08:22;;;;;;;6.15;5.55;;;;;;;;;;4984863;28;20064;-41
2023/05/20 06:10:48;;;;;;;5.85;4.43;;;;;;;;;;4983871;28;20068;-45
2023/05/20 06:13:14;;;;;;;6.50;4.50;;;;;;;;;;4981505;28;20388;-40
2023/05/20 06:15:40;;;;;;;4.43;4.13;;;;;;;;;;4984604;28;20042;-40
2023/05/20 06:18:05;;;;;;;5.07;4.55;;;;;;;;;;4984392;28;20066;-39
2023/05/20 06:20:31;;;;;;;4.15;3.75;;;;;;;;;;4986242;28;20053;-40
2023/05/20 06:22:56;;;;;;;7.45;3.50;;;;;;;;;;4977041;28;20080;-43
2023/05/20 06:25:22;;;;;;;3.70;3.40;;;;;;;;;;4984100;28;23018;-40
2023/05/20 06:27:48;;;;;;;3.33;3.03;;;;;;;;;;4985378;28;20412;-43
2023/05/20 06:30:13;;;;;;;4.18;3.38;;;;;;;;;;4982565;28;20380;-40
2023/05/20 06:32:38;;;;;;;8.13;3.40;;;;;;;;;;4983742;28;20034;-40
2023/05/20 06:35:04;;;;;;;3.85;3.10;;;;;;;;;;4983042;28;20034;-40
2023/05/20 06:37:30;;;;;;;5.70;2.90;;;;;;;;;;4982000;28;20434;-42
2023/05/20 06:39:55;;;;;;;3.40;3.20;;;;;;;;;;4980105;28;20034;-39
2023/05/20 06:42:20;;;;;;;3.63;3.40;;;;;;;;;;4982760;28;20047;-42
2023/05/20 06:44:46;;;;;;;4.80;3.22;;;;;;;;;;4976830;28;20049;-40
2023/05/20 06:47:16;;;;;;;3.67;3.30;;;;;;;;;;4982768;28;20126;-40
2023/05/20 06:49:42;;;;;;;3.25;3.05;;;;;;;;;;4982763;28;20025;-46
2023/05/20 06:52:08;;;;;;;6.65;3.38;;;;;;;;;;4984054;28;20050;-43
2023/05/20 06:54:38;;;;;;;3.38;3.05;;;;;;;;;;4982402;28;20031;-40
2023/05/20 06:57:05;;;;;;;3.30;3.00;;;;;;;;;;4980680;28;20050;-41
2023/05/20 06:59:30;;;;;;;3.47;3.28;;;;;;;;;;4979054;28;20428;-40
2023/05/20 07:01:55;;;;;;;3.92;3.33;;;;;;;;;;4981538;28;20125;-41
2023/05/20 07:04:21;;;;;;;5.15;3.30;;;;;;;;;;4982220;28;20372;-40
2023/05/20 07:06:46;;;;;;;4.95;2.83;;;;;;;;;;4980398;28;20044;-40
2023/05/20 07:09:11;;;;;;;3.28;2.88;;;;;;;;;;4981316;28;20070;-45
2023/05/20 07:11:37;;;;;;;6.68;3.40;;;;;;;;;;4980956;28;20428;-41
2023/05/20 07:14:02;;;;;;;5.55;2.78;;;;;;;;;;4979804;28;20042;-43
2023/05/20 07:16:28;;;;;;;2.90;2.70;;;;;;;;;;4976433;28;20042;-41
2023/05/20 07:18:53;;;;;;;3.65;2.80;;;;;;;;;;4972877;28;20034;-41
2023/05/20 07:21:19;;;;;;;3.05;2.85;;;;;;;;;;4980439;28;20042;-40
2023/05/20 07:23:44;;;;;;;2.78;2.67;;;;;;;;;;4979842;28;20035;-40
2023/05/20 07:26:09;;;;;;;2.92;2.72;;;;;;;;;;4979506;28;20042;-41
2023/05/20 07:28:35;;;;;;;3.15;2.95;;;;;;;;;;4982151;28;20565;-45
2023/05/20 07:31:00;;;;;;;5.40;2.90;;;;;;;;;;4972942;28;20049;-44
2023/05/20 07:33:26;;;;;;;3.50;3.20;;;;;;;;;;4976045;28;20104;-40
2023/05/20 07:35:53;;;;;;;5.28;2.92;;;;;;;;;;4976451;28;20165;-40
2023/05/20 07:38:18;;;;;;;5.32;3.20;;;;;;;;;;4974920;28;20491;-40
2023/05/20 07:40:44;;;;;;;3.15;2.72;;;;;;;;;;4981131;28;20047;-42
2023/05/20 07:43:09;;;;;;;3.90;2.45;;;;;;;;;;4977116;28;20496;-41
2023/05/20 07:45:38;;;;;;;4.45;3.10;;;;;;;;;;4977802;28;20025;-40
2023/05/20 07:48:04;;;;;;;4.00;2.75;;;;;;;;;;4973404;28;20015;-40
2023/05/20 07:50:29;;;;;;;3.15;2.95;;;;;;;;;;4980320;28;20025;-40
2023/05/20 07:52:55;;;;;;;5.15;3.17;;;;;;;;;;4972417;28;20105;-41
2023/05/20 07:55:20;;;;;;;3.38;3.08;;;;;;;;;;4974978;28;20038;-40
2023/05/20 07:57:46;;;;;;;3.08;2.88;;;;;;;;;;4977281;28;20070;-41
2023/05/20 08:00:12;;;;;;;5.63;3.38;;;;;;;;;;4986898;28;20034;-43
2023/05/20 08:02:38;;;;;;;3.45;3.00;;;;;;;;;;4984935;28;20038;-38
2023/05/20 08:05:04;;;;;;;5.47;3.03;;;;;;;;;;4985056;28;20525;-41
2023/05/20 08:07:29;;;;;;;3.58;3.38;;;;;;;;;;4984146;28;20030;-43
2023/05/20 08:09:55;;;;;;;2.88;2.67;;;;;;;;;;4983766;28;20026;-43
2023/05/20 08:12:21;;;;;;;6.03;3.05;;;;;;;;;;4982645;28;20046;-43
2023/05/20 08:14:46;;;;;;;13.73;4.30;;;;;;;;;;4977455;28;20038;-42
2023/05/20 08:17:11;;;;;;;3.78;3.47;;;;;;;;;;4984160;28;20504;-40
2023/05/20 08:19:37;;;;;;;3.85;3.45;;;;;;;;;;4984306;28;20053;-40
2023/05/20 08:22:02;;;;;;;3.60;3.35;;;;;;;;;;4983743;28;20046;-43
2023/05/20 08:24:28;;;;;;;3.95;3.65;;;;;;;;;;4978323;28;20049;-40
2023/05/20 08:26:53;;;;;;;3.33;3.05;;;;;;;;;;4982577;28;20050;-40
2023/05/20 08:29:19;;;;;;;2.90;2.70;;;;;;;;;;4979854;28;20483;-40
2023/05/20 08:31:44;;;;;;;3.50;3.20;;;;;;;;;;4979392;28;20104;-45
2023/05/20 08:34:10;;;;;;;3.65;3.10;;;;;;;;;;4979726;28;20037;-41
2023/05/20 08:36:35;;;;;;;3.45;3.15;;;;;;;;;;4978741;28;20038;-41
2023/05/20 08:39:01;;;;;;;3.28;3.08;;;;;;;;;;4979860;28;20468;-40
2023/05/20 08:41:26;;;;;;;5.43;3.47;;;;;;;;;;4984528;28;20403;-43
2023/05/20 08:43:52;;;;;;;5.85;3.47;;;;;;;;;;4978529;28;20030;-40
2023/05/20 08:46:20;;;;;;;4.40;3.92;;;;;;;;;;4981623;28;20042;-40
2023/05/20 08:48:47;;;;;;;3.85;3.53;;;;;;;;;;4985898;28;20034;-44
2023/05/20 08:51:17;;;;;;;5.65;3.85;;;;;;;;;;4987220;28;20050;-43
2023/05/20 08:53:43;;;;;;;7.15;3.90;;;;;;;;;;4985269;28;20130;-41
2023/05/20 08:56:10;;;;;;;4.63;3.67;;;;;;;;;;4982481;28;20399;-41
2023/05/20 08:58:37;;;;;;;3.65;3.35;;;;;;;;;;4982505;28;20030;-41
2023/05/20 09:01:03;;;;;;;3.60;3.40;;;;;;;;;;5016712;28;20042;-41
2023/05/20 09:03:29;;;;;;;3.78;3.40;;;;;;;;;;5013010;28;20030;-40
2023/05/20 09:06:07;;;;;;;2.88;2.67;;;;;;;;;;4978910;28;20046;-41
2023/05/20 09:08:34;;;;;;;3.38;3.08;;;;;;;;;;5016291;28;20047;-40
2023/05/20 09:10:59;;;;;;;3.58;3.38;;;;;;;;;;4986113;28;20058;-43
2023/05/20 09:13:27;;;;;;;6.05;3.58;;;;;;;;;;4986817;28;20105;-43
2023/05/20 09:15:53;;;;;;;8.00;3.65;;;;;;;;;;4983439;28;20074;-40
2023/05/20 09:18:19;;;;;;;4.47;3.38;;;;;;;;;;4985476;28;20113;-44
2023/05/20 09:20:47;;;;;;;6.80;4.00;;;;;;;;;;4981609;28;20106;-42
2023/05/20 09:23:13;;;;;;;3.80;3.55;;;;;;;;;;4984327;28;20029;-42
2023/05/20 09:25:38;;;;;;;3.58;3.28;;;;;;;;;;4986152;28;20042;-41
2023/05/20 09:28:06;;;;;;;3.38;2.85;;;;;;;;;;4975832;28;20112;-41
2023/05/20 09:30:32;;;;;;;3.22;2.92;;;;;;;;;;4983866;28;20086;-44
2023/05/20 09:33:00;;;;;;;2.97;2.78;;;;;;;;;;4983835;28;20491;-45
2023/05/20 09:35:27;;;;;;;3.60;3.30;;;;;;;;;;4982832;28;20049;-41
2023/05/20 09:37:56;;;;;;;4.00;2.95;;;;;;;;;;4985204;28;20049;-43
2023/05/20 09:40:25;;;;;;;3.30;2.47;;;;;;;;;;4979692;28;20037;-45
2023/05/20 09:42:53;;;;;;;3.45;2.90;;;;;;;;;;4984888;28;20053;-48
2023/05/20 09:45:21;;;;;;;3.10;2.90;;;;;;;;;;4982285;28;20030;-40
2023/05/20 09:47:49;;;;;;;3.00;2.80;;;;;;;;;;4984832;28;20042;-42
2023/05/20 09:50:15;;;;;;;6.47;3.20;;;;;;;;;;4983520;28;20034;-42
2023/05/20 09:52:43;;;;;;;5.35;2.75;;;;;;;;;;4984583;28;20038;-40
2023/05/20 09:55:09;;;;;;;2.67;2.47;;;;;;;;;;4985599;28;20026;-44
2023/05/20 09:57:36;;;;;;;3.55;2.33;;;;;;;;;;4986822;28;20053;-40
2023/05/20 10:00:05;;;;;;;2.55;2.35;;;;;;;;;;4984318;28;20476;-43
2023/05/20 10:02:34;;;;;;;2.60;2.40;;;;;;;;;;4986378;28;20070;-42
2023/05/20 10:05:09;;;;;;;2.80;2.55;;;;;;;;;;4986441;28;20326;-41
2023/05/20 10:08:05;;;;;;;2.33;2.13;;;;;;;;;;4979942;28;20066;-45
2023/05/20 10:11:11;;;;;;;2.15;2.05;;;;;;;;;;4983040;28;20034;-40
2023/05/20 10:13:57;;;;;;;1.80;1.70;;;;;;;;;;4983022;28;20149;-41
2023/05/20 10:16:45;;;;;;;3.63;2.58;;;;;;;;;;4985429;28;20085;-41
2023/05/20 10:19:25;;;;;;;4.03;2.25;;;;;;;;;;4978127;28;20157;-41
2023/05/20 10:22:04;;;;;;;2.55;2.40;;;;;;;;;;4981284;28;20038;-41
2023/05/20 10:24:36;;;;;;;2.45;2.25;;;;;;;;;;4979369;28;20086;-44
2023/05/20 10:27:04;;;;;;;;;;;;;;;;;;4980887;28;20588;-43
2023/05/20 10:29:42;;;;;;;2.67;2.30;;;;;;;;;;4982223;28;19917;-43
2023/05/20 10:32:07;;;;;;;2.60;2.40;;;;;;;;;;4978713;28;20035;-45
2023/05/20 10:34:47;;;;;;;2.60;2.30;;;;;;;;;;4983718;28;20022;-42
2023/05/20 10:37:24;;;;;;;4.00;2.58;;;;;;;;;;4980683;28;20038;-44
2023/05/20 10:39:50;;;;;;;2.80;2.60;;;;;;;;;;4981775;28;20026;-44
2023/05/20 10:42:15;;;;;;;16.63;8.93;;;;;;;;;;4983850;28;20085;-41
2023/05/20 10:44:46;;;;;;;8.70;6.25;;;;;;;;;;4980724;28;20360;-42
2023/05/20 10:47:12;;;;;;;4.20;1.92;;;;;;;;;;4982919;28;20463;-41
2023/05/20 10:49:46;;;;;;;4.97;2.33;;;;;;;;;;4983654;28;20029;-40
2023/05/20 10:52:13;;;;;;;5.05;3.80;;;;;;;;;;4980086;28;20412;-45
2023/05/20 10:54:57;;;;;;;1.90;1.80;;;;;;;;;;4983646;28;20031;-41
2023/05/20 10:57:24;;;;;;;3.20;1.95;;;;;;;;;;4981702;28;20042;-41
2023/05/20 10:59:50;;;;;;;6.93;6.22;;;;;;;;;;4983710;28;20030;-41
2023/05/20 11:02:16;;;;;;;4.45;3.92;;;;;;;;;;4981797;28;20046;-41
2023/05/20 11:04:45;;;;;;;4.63;4.22;;;;;;;;;;4984710;28;20042;-47
2023/05/20 11:07:11;;;;;;;5.03;4.63;;;;;;;;;;4980241;28;20482;-41
2023/05/20 11:09:37;;;;;;;4.50;4.00;;;;;;;;;;4987206;28;20030;-46
2023/05/20 11:12:03;;;;;;;6.40;4.05;;;;;;;;;;4981099;28;20093;-42
2023/05/20 11:14:28;;;;;;;7.68;5.00;;;;;;;;;;4985248;28;20022;-43
2023/05/20 11:17:00;;;;;;;5.18;4.15;;;;;;;;;;4983134;28;20045;-40
2023/05/20 11:19:26;;;;;;;5.47;4.97;;;;;;;;;;4983099;28;20487;-43
2023/05/20 11:21:52;;;;;;;5.18;4.68;;;;;;;;;;4982493;28;20054;-44
2023/05/20 11:24:25;;;;;;;5.28;4.85;;;;;;;;;;4980867;28;20023;-48
2023/05/20 11:26:51;;;;;;;10.30;5.05;;;;;;;;;;4983001;28;20046;-41
2023/05/20 11:29:18;;;;;;;5.15;4.65;;;;;;;;;;4982943;28;20026;-46
2023/05/20 11:31:44;;;;;;;7.00;4.97;;;;;;;;;;4982593;28;20038;-45
2023/05/20 11:34:10;;;;;;;6.60;4.97;;;;;;;;;;4980928;28;20065;-44
2023/05/20 11:36:42;;;;;;;5.60;5.07;;;;;;;;;;4985686;28;20042;-41
2023/05/20 11:39:13;;;;;;;6.45;4.70;;;;;;;;;;4984915;28;20041;-41
2023/05/20 11:41:41;;;;;;;5.50;4.53;;;;;;;;;;4983878;28;20049;-42
2023/05/20 11:44:13;;;;;;;5.13;4.10;;;;;;;;;;4982375;28;20450;-41
2023/05/20 11:46:42;;;;;;;6.85;3.58;;;;;;;;;;4980402;28;20035;-41
2023/05/20 11:49:08;;;;;;;5.47;5.05;;;;;;;;;;4982626;28;20495;-41
2023/05/20 11:51:34;;;;;;;5.80;5.28;;;;;;;;;;4980358;28;20070;-43
2023/05/20 11:54:01;;;;;;;4.55;4.13;;;;;;;;;;4981825;28;20026;-41
2023/05/20 11:56:35;;;;;;;7.35;4.95;;;;;;;;;;4983842;28;20454;-41
2023/05/20 11:59:02;;;;;;;4.35;3.95;;;;;;;;;;4982064;28;20428;-41
2023/05/20 12:01:36;;;;;;;5.97;3.80;;;;;;;;;;4982636;28;20042;-41
2023/05/20 12:04:04;;;;;;;5.93;3.58;;;;;;;;;;4983954;28;20030;-41
2023/05/20 12:06:30;;;;;;;6.53;4.60;;;;;;;;;;4974934;28;20097;-40
2023/05/20 12:08:55;;;;;;;5.38;4.38;;;;;;;;;;4981889;28;20026;-40
2023/05/20 12:11:21;;;;;;;4.50;4.10;;;;;;;;;;4985541;28;20122;-41
2023/05/20 12:13:46;;;;;;;8.50;4.78;;;;;;;;;;4983516;28;20450;-41
2023/05/20 12:16:12;;;;;;;4.60;3.92;;;;;;;;;;4981218;28;20050;-41
2023/05/20 12:18:37;;;;;;;3.92;3.63;;;;;;;;;;4983174;28;20472;-40
2023/05/20 12:21:03;;;;;;;5.20;3.88;;;;;;;;;;4983954;28;20054;-41
2023/05/20 12:23:32;;;;;;;4.85;4.00;;;;;;;;;;4981173;28;20030;-46
2023/05/20 12:25:58;;;;;;;4.80;3.65;;;;;;;;;;4982174;28;20038;-48
2023/05/20 12:28:23;;;;;;;4.63;3.22;;;;;;;;;;4983530;28;20038;-40
2023/05/20 12:30:48;;;;;;;3.75;3.40;;;;;;;;;;4983906;28;20093;-44
2023/05/20 12:33:14;;;;;;;3.72;3.38;;;;;;;;;;4983517;28;20031;-43
2023/05/20 12:35:41;;;;;;;4.30;3.88;;;;;;;;;;4981300;28;20543;-40
2023/05/20 12:38:06;;;;;;;3.70;3.40;;;;;;;;;;4986152;28;20599;-43
2023/05/20 12:40:32;;;;;;;6.10;3.50;;;;;;;;;;4986201;28;20113;-44
2023/05/20 12:43:00;;;;;;;4.53;3.60;;;;;;;;;;4985156;28;20378;-44
2023/05/20 12:45:25;;;;;;;6.45;3.75;;;;;;;;;;4984204;28;20468;-40
2023/05/20 12:47:50;;;;;;;6.70;3.63;;;;;;;;;;4985914;28;20084;-41
2023/05/20 12:50:16;;;;;;;5.32;3.65;;;;;;;;;;4988926;28;20472;-44
2023/05/20 12:52:41;;;;;;;3.88;3.45;;;;;;;;;;4984375;28;20037;-43
2023/05/20 12:55:12;;;;;;;4.18;2.97;;;;;;;;;;4982621;28;20065;-47
2023/05/20 12:57:39;;;;;;;3.60;3.30;;;;;;;;;;4985359;28;20504;-41
2023/05/20 13:00:05;;;;;;;7.40;3.47;;;;;;;;;;4986746;28;20022;-44
2023/05/20 13:02:30;;;;;;;6.47;3.20;;;;;;;;;;4985653;28;20034;-45
2023/05/20 13:04:56;;;;;;;5.30;2.67;;;;;;;;;;4988231;28;20383;-45
2023/05/20 13:07:21;;;;;;;5.32;3.20;;;;;;;;;;4985555;28;20053;-46
2023/05/20 13:09:46;;;;;;;5.75;2.70;;;;;;;;;;4983871;28;20097;-42
2023/05/20 13:12:12;;;;;;;3.28;2.55;;;;;;;;;;4985116;28;20038;-42
2023/05/20 13:14:38;;;;;;;3.30;2.42;;;;;;;;;;4985375;28;20079;-41
2023/05/20 13:17:03;;;;;;;4.32;2.25;;;;;;;;;;4985234;28;20043;-41
2023/05/20 13:19:28;;;;;;;3.05;2.33;;;;;;;;;;4986043;28;20169;-42
2023/05/20 13:21:54;;;;;;;3.25;2.45;;;;;;;;;;4985842;28;20403;-46
2023/05/20 13:24:20;;;;;;;4.32;2.53;;;;;;;;;;4984889;28;20105;-42
2023/05/20 13:26:45;;;;;;;2.70;2.50;;;;;;;;;;4983696;28;20514;-42
2023/05/20 13:29:12;;;;;;;6.82;2.72;;;;;;;;;;4984917;28;20026;-41
2023/05/20 13:31:38;;;;;;;7.95;2.80;;;;;;;;;;4981993;28;20038;-44
2023/05/20 13:34:04;;;;;;;3.90;2.83;;;;;;;;;;5016876;28;20530;-42
2023/05/20 13:36:30;;;;;;;8.45;3.00;;;;;;;;;;4978178;28;20097;-44
2023/05/20 13:38:56;;;;;;;3.33;3.03;;;;;;;;;;5011774;28;20542;-44
2023/05/20 13:41:25;;;;;;;5.35;3.30;;;;;;;;;;4985111;28;20182;-42
2023/05/20 13:43:52;;;;;;;3.78;3.05;;;;;;;;;;5008737;28;20042;-41
2023/05/20 13:46:18;;;;;;;3.40;3.10;;;;;;;;;;4980948;28;20082;-44
2023/05/20 13:48:43;;;;;;;5.82;3.25;;;;;;;;;;4978067;28;20027;-41
2023/05/20 13:51:10;;;;;;;6.32;2.95;;;;;;;;;;4982586;28;20089;-40
2023/05/20 13:53:38;;;;;;;3.28;2.97;;;;;;;;;;4981212;28;20108;-42
2023/05/20 13:56:04;;;;;;;7.07;2.80;;;;;;;;;;4984145;28;20081;-40
2023/05/20 13:58:30;;;;;;;3.30;2.70;;;;;;;;;;4967165;28;20133;-44
2023/05/20 14:00:55;;;;;;;4.25;2.63;;;;;;;;;;4963973;28;20101;-41
2023/05/20 14:03:21;;;;;;;4.13;3.00;;;;;;;;;;4963492;28;20058;-40
2023/05/20 14:05:47;;;;;;;3.58;2.80;;;;;;;;;;4960887;28;20103;-40
2023/05/20 14:08:12;;;;;;;3.25;2.95;;;;;;;;;;4995044;28;20141;-40
2023/05/20 14:10:38;;;;;;;3.97;3.20;;;;;;;;;;4985417;28;20083;-41
2023/05/20 14:13:04;;;;;;;4.95;3.22;;;;;;;;;;4984756;28;20022;-41
2023/05/20 14:15:29;;;;;;;5.28;3.10;;;;;;;;;;4983983;28;20449;-39
2023/05/20 14:17:56;;;;;;;6.72;2.70;;;;;;;;;;4983787;28;20487;-43
2023/05/20 14:20:22;;;;;;;4.05;2.80;;;;;;;;;;4984413;28;20122;-41
2023/05/20 14:22:48;;;;;;;3.25;3.05;;;;;;;;;;4984907;28;20030;-40
2023/05/20 14:25:13;;;;;;;5.72;3.35;;;;;;;;;;4985525;28;20031;-42
2023/05/20 14:27:39;;;;;;;3.25;2.97;;;;;;;;;;4983946;28;20046;-40
2023/05/20 14:30:05;;;;;;;3.15;2.90;;;;;;;;;;4983502;28;20023;-41
2023/05/20 14:32:30;;;;;;;4.25;3.20;;;;;;;;;;4985344;28;20930;-41
2023/05/20 14:34:56;;;;;;;3.38;3.00;;;;;;;;;;4985173;28;20030;-39
2023/05/20 14:37:21;;;;;;;6.47;4.30;;;;;;;;;;4980401;28;20399;-43
2023/05/20 14:39:47;;;;;;;4.25;3.85;;;;;;;;;;4982275;28;20035;-43